Terminal Aerodrome Forecast
Issued by NWS

Home | Current Version | Previous Version | Text Only | Print | Product List | Glossary On
Versions: 1 2 3 4 5 6 7 8 9 10 11 12 13 14 15 16 17 18 19
555
FTUS43 KFGF 082320
TAFDVL
TAF
KDVL 082320Z 0900/0924 36017KT P6SM SCT020
      TEMPO 0900/0902 BKN020
     FM090200 34011KT P6SM BKN120
     FM091600 01008KT P6SM OVC050
     FM091800 36007KT P6SM OVC025=

USA.gov is the U.S. government's official web portal to all federal, state and local government web resources and services.